Time;durP1;ratioP1;P1;durP2;ratioP2;P2;SDS_P1;SDS_P2;PMS_P1;PMS_P2;Temp;Humidity;BMP_temperature;BMP_pressure;BME280_temperature;BME280_humidity;BME280_pressure;Samples;Min_cycle;Max_cycle;Signal;HPM_P1;HPM_P2
2021/04/30 00:01:26;;;;;;;17.57;3.20;;;;;;;;;;4846771;28;20241;-76
2021/04/30 00:03:49;;;;;;;21.40;3.60;;;;;;;;;;4856909;28;20260;-77
2021/04/30 00:06:11;;;;;;;11.80;2.70;;;;;;;;;;4857628;28;20182;-78
2021/04/30 00:08:33;;;;;;;25.43;4.10;;;;;;;;;;4857012;28;20190;-77
2021/04/30 00:10:55;;;;;;;11.17;2.50;;;;;;;;;;4858124;28;20181;-79
2021/04/30 00:13:18;;;;;;;11.53;2.30;;;;;;;;;;4857327;28;20649;-80
2021/04/30 00:15:41;;;;;;;21.00;3.43;;;12.70;4.40;;;;;;4857316;28;20186;-79
2021/04/30 00:18:05;;;;;;;8.23;1.93;;;;;;;;;;4857927;28;20728;-76
2021/04/30 00:20:27;;;;;;;8.23;1.93;;;;;;;;;;4856249;28;20196;-75
2021/04/30 00:22:49;;;;;;;11.77;2.33;;;;;;;;;;4857600;28;20239;-76
2021/04/30 00:25:12;;;;;;;19.30;3.07;;;;;;;;;;4857586;28;20213;-77
2021/04/30 00:27:34;;;;;;;24.17;3.70;;;;;;;;;;4856960;28;20256;-75
2021/04/30 00:29:56;;;;;;;17.37;2.93;;;;;;;;;;4856141;28;20233;-78
2021/04/30 00:32:19;;;;;;;14.00;2.57;;;12.70;66.40;;;;;;4857523;28;20186;-77
2021/04/30 00:34:42;;;;;;;15.07;2.67;;;;;;;;;;4857094;28;20190;-80
2021/04/30 00:37:04;;;;;;;11.13;2.37;;;;;;;;;;4856708;28;20186;-76
2021/04/30 00:39:26;;;;;;;10.47;2.17;;;;;;;;;;4849884;28;20272;-77
2021/04/30 00:41:49;;;;;;;8.87;2.17;;;;;;;;;;4856969;28;20189;-73
2021/04/30 00:44:11;;;;;;;10.93;2.40;;;;;;;;;;4856790;28;20209;-78
2021/04/30 00:46:33;;;;;;;16.30;2.83;;;;;;;;;;4857693;28;20239;-76
2021/04/30 00:48:56;;;;;;;11.03;2.40;;;12.20;99.90;;;;;;4856479;28;20186;-75
2021/04/30 00:51:18;;;;;;;20.67;3.47;;;;;;;;;;4838829;28;20202;-76
2021/04/30 00:53:41;;;;;;;20.07;3.33;;;;;;;;;;4856527;28;20308;-75
2021/04/30 00:56:03;;;;;;;9.67;2.03;;;;;;;;;;4856061;28;20206;-75
2021/04/30 00:58:25;;;;;;;9.97;2.33;;;;;;;;;;4856135;28;20662;-76
2021/04/30 01:00:48;;;;;;;75.30;9.57;;;;;;;;;;4854239;28;20749;-78
2021/04/30 01:03:10;;;;;;;9.23;2.27;;;11.80;99.90;;;;;;4855660;28;20663;-76
2021/04/30 01:05:33;;;;;;;16.70;3.00;;;11.80;99.90;;;;;;4857064;28;20186;-76
2021/04/30 01:07:55;;;;;;;7.10;2.03;;;;;;;;;;4857229;28;20186;-75
2021/04/30 01:10:18;;;;;;;11.73;2.60;;;;;;;;;;4854808;28;20198;-76
2021/04/30 01:12:41;;;;;;;56.90;7.57;;;11.70;99.90;;;;;;4855752;28;20237;-75
2021/04/30 01:15:04;;;;;;;7.53;2.00;;;11.60;99.90;;;;;;4856232;28;20248;-76
2021/04/30 01:17:26;;;;;;;13.37;2.90;;;;;;;;;;4849138;28;20194;-75
2021/04/30 01:19:49;;;;;;;15.80;2.97;;;;;;;;;;4856246;28;20248;-74
2021/04/30 01:22:12;;;;;;;10.43;2.57;;;11.60;99.90;;;;;;4857478;28;20236;-76
2021/04/30 01:24:34;;;;;;;20.30;3.43;;;;;;;;;;4854223;28;20647;-76
2021/04/30 01:26:56;;;;;;;11.23;2.47;;;;;;;;;;4856884;28;20252;-76
2021/04/30 01:29:18;;;;;;;7.37;2.00;;;;;;;;;;4856541;28;20244;-75
2021/04/30 01:31:41;;;;;;;16.53;3.30;;;11.60;99.90;;;;;;4855744;28;20711;-75
2021/04/30 01:34:04;;;;;;;19.13;3.40;;;11.50;99.90;;;;;;4854052;28;20206;-75
2021/04/30 01:36:27;;;;;;;10.40;2.47;;;;;;;;;;4856600;28;20214;-75
2021/04/30 01:38:50;;;;;;;7.40;2.07;;;11.50;99.90;;;;;;4856488;28;20210;-74
2021/04/30 01:41:12;;;;;;;20.97;3.77;;;;;;;;;;4856113;28;20592;-76
2021/04/30 01:43:34;;;;;;;21.70;3.60;;;;;;;;;;4855159;28;20244;-77
2021/04/30 01:45:59;;;;;;;10.50;2.60;;;11.60;99.90;;;;;;4855942;28;20182;-76
2021/04/30 01:48:24;;;;;;;11.87;2.60;;;11.60;99.90;;;;;;4856427;28;20248;-76
2021/04/30 01:50:47;;;;;;;18.43;3.40;;;;;;;;;;4856515;28;20586;-74
2021/04/30 01:53:09;;;;;;;11.00;2.40;;;;;;;;;;4854797;28;20725;-74
2021/04/30 01:55:32;;;;;;;20.87;3.60;;;11.50;99.90;;;;;;4855796;28;20182;-75
2021/04/30 01:57:54;;;;;;;7.10;2.07;;;;;;;;;;4856282;28;20240;-75
2021/04/30 02:00:22;;;;;;;12.57;2.67;;;11.50;99.90;;;;;;4856092;28;20219;-75
2021/04/30 02:02:45;;;;;;;51.77;7.17;;;11.50;99.90;;;;;;4852875;28;20222;-75
2021/04/30 02:05:08;;;;;;;14.10;2.93;;;11.50;99.90;;;;;;4854534;28;20186;-76
2021/04/30 02:07:31;;;;;;;13.57;2.80;;;;;;;;;;4855154;28;20550;-75
2021/04/30 02:09:55;;;;;;;8.80;2.40;;;;;;;;;;4856515;28;20232;-75
2021/04/30 02:12:23;;;;;;;13.50;2.67;;;11.60;99.90;;;;;;4855996;28;20614;-74
2021/04/30 02:14:45;;;;;;;20.87;3.50;;;11.40;99.90;;;;;;4853102;28;20190;-75
2021/04/30 02:17:07;;;;;;;17.50;3.37;;;;;;;;;;4849082;28;20185;-75
2021/04/30 02:19:30;;;;;;;8.60;2.47;;;;;;;;;;4856326;28;20221;-74
2021/04/30 02:21:52;;;;;;;10.63;2.40;;;;;;;;;;4856275;28;20240;-74
2021/04/30 02:24:14;;;;;;;17.80;3.43;;;;;;;;;;4855038;28;20259;-75
2021/04/30 02:26:37;;;;;;;21.23;3.80;;;;;;;;;;4855442;28;20644;-75
2021/04/30 02:28:59;;;;;;;12.07;2.67;;;11.50;99.90;;;;;;4855496;28;20228;-75
2021/04/30 02:31:22;;;;;;;10.83;2.43;;;;;;;;;;4858392;28;20186;-75
2021/04/30 02:33:44;;;;;;;17.37;3.20;;;;;;;;;;4859300;28;20190;-75
2021/04/30 02:36:07;;;;;;;12.73;2.80;;;11.40;99.90;;;;;;4858899;28;20194;-75
2021/04/30 02:38:31;;;;;;;13.33;3.13;;;;;;;;;;4859142;28;20190;-75
2021/04/30 02:40:53;;;;;;;8.70;2.37;;;;;;;;;;4852367;28;20190;-76
2021/04/30 02:43:17;;;;;;;10.10;2.80;;;11.50;99.90;;;;;;4856625;28;20734;-75
2021/04/30 02:45:41;;;;;;;22.30;3.90;;;11.50;99.90;;;;;;4859660;28;20186;-76
2021/04/30 02:48:09;;;;;;;8.00;2.30;;;;;;;;;;4858773;28;20194;-76
2021/04/30 02:50:31;;;;;;;6.70;2.03;;;11.50;99.90;;;;;;4851855;28;20247;-76
2021/04/30 02:52:54;;;;;;;11.50;2.40;;;;;;;;;;4858901;28;20194;-76
2021/04/30 02:55:18;;;;;;;14.53;2.80;;;11.50;99.90;;;;;;4859448;28;20193;-76
2021/04/30 02:57:40;;;;;;;25.30;4.10;;;;;;;;;;4858359;28;20194;-76
2021/04/30 03:00:04;;;;;;;8.67;2.20;;;11.70;99.90;;;;;;4857332;28;20785;-74
2021/04/30 03:02:28;;;;;;;8.13;2.03;;;11.40;99.90;;;;;;4856895;28;20234;-75
2021/04/30 03:04:50;;;;;;;9.40;2.33;;;;;;;;;;4858070;28;20197;-76
2021/04/30 03:07:12;;;;;;;8.37;2.23;;;;;;;;;;4859054;28;20217;-75
2021/04/30 03:09:35;;;;;;;22.90;3.83;;;;;;;;;;4858119;28;20186;-75
2021/04/30 03:11:57;;;;;;;10.57;2.47;;;;;;;;;;4858539;28;20252;-75
2021/04/30 03:14:19;;;;;;;13.87;2.80;;;;;;;;;;4858283;28;20756;-75
2021/04/30 03:16:41;;;;;;;25.13;3.97;;;;;;;;;;4858951;28;20240;-77
2021/04/30 03:19:05;;;;;;;20.40;3.47;;;11.50;99.90;;;;;;4857959;28;20264;-76
2021/04/30 03:21:27;;;;;;;12.10;2.67;;;;;;;;;;4850784;28;20236;-76
2021/04/30 03:23:49;;;;;;;23.23;4.03;;;;;;;;;;4857717;28;20193;-74
2021/04/30 03:26:12;;;;;;;12.17;2.77;;;;;;;;;;4858838;28;20217;-76
2021/04/30 03:28:34;;;;;;;18.93;3.27;;;;;;;;;;4858700;28;20190;-76
2021/04/30 03:30:56;;;;;;;19.60;3.47;;;;;;;;;;4857287;28;20198;-76
2021/04/30 03:33:18;;;;;;;12.57;2.60;;;;;;;;;;4857652;28;20186;-76
2021/04/30 03:35:41;;;;;;;15.07;2.80;;;11.40;99.90;;;;;;4858605;28;20189;-76
2021/04/30 03:38:04;;;;;;;9.10;2.20;;;;;;;;;;4857259;28;20225;-76
2021/04/30 03:40:27;;;;;;;20.03;3.27;;;;;;;;;;4849245;28;20218;-74
2021/04/30 03:42:49;;;;;;;25.53;3.93;;;;;;;;;;4856697;28;20664;-75
2021/04/30 03:45:12;;;;;;;7.33;1.90;;;;;;;;;;4858524;28;20194;-74
2021/04/30 03:47:35;;;;;;;16.20;2.93;;;;;;;;;;4858174;28;20664;-74
2021/04/30 03:49:57;;;;;;;7.37;2.07;;;;;;;;;;4858553;28;20178;-75
2021/04/30 03:52:20;;;;;;;21.27;3.57;;;11.40;99.90;;;;;;4856819;28;20287;-75
2021/04/30 03:54:42;;;;;;;21.23;3.67;;;;;;;;;;4857723;28;20232;-76
2021/04/30 03:57:05;;;;;;;8.07;1.77;;;11.40;99.90;;;;;;4858083;28;20187;-75
2021/04/30 03:59:27;;;;;;;11.67;2.67;;;;;;;;;;4849457;28;20214;-76
2021/04/30 04:01:49;;;;;;;29.07;4.53;;;;;;;;;;4855195;28;20287;-76
2021/04/30 04:04:11;;;;;;;12.63;2.60;;;;;;;;;;4856065;28;20186;-76
2021/04/30 04:06:33;;;;;;;10.57;2.23;;;;;;;;;;4856872;28;20248;-75
2021/04/30 04:08:56;;;;;;;8.20;2.20;;;11.40;99.90;;;;;;4858303;28;20186;-76
2021/04/30 04:11:19;;;;;;;12.97;2.63;;;;;;;;;;4856712;28;20232;-76
2021/04/30 04:14:01;;;;;;;11.83;2.73;;;;;;;;;;4854997;28;20221;-76
2021/04/30 04:16:43;;;;;;;23.17;4.13;;;;;;;;;;4855655;28;20676;-76
2021/04/30 04:19:25;;;;;;;15.33;3.43;;;;;;;;;;4856927;28;20202;-76
2021/04/30 04:22:07;;;;;;;9.73;3.00;;;;;;;;;;4856947;28;20186;-77
2021/04/30 04:24:51;;;;;;;17.17;3.43;;;11.40;99.90;;;;;;4855402;28;20522;-74
2021/04/30 04:27:33;;;;;;;14.83;3.07;;;;;;;;;;4848618;28;20184;-74
2021/04/30 04:30:15;;;;;;;20.67;3.93;;;11.40;99.90;;;;;;4856582;28;20182;-78
2021/04/30 04:32:56;;;;;;;9.77;2.50;;;;;;;;;;4856624;28;20529;-76
2021/04/30 04:35:37;;;;;;;25.93;4.67;;;;;;;;;;4849152;28;20644;-76
2021/04/30 04:38:17;;;;;;;12.33;3.10;;;;;;;;;;4857107;28;20185;-76
2021/04/30 04:40:59;;;;;;;11.53;2.97;;;11.60;99.90;;;;;;4857139;28;20233;-77
2021/04/30 04:43:39;;;;;;;33.33;5.47;;;;;;;;;;4855784;28;20539;-76
2021/04/30 04:46:17;;;;;;;11.97;2.77;;;;;;;;;;4853691;28;20190;-76
2021/04/30 04:48:40;;;;;;;14.87;3.13;;;;;;;;;;4856410;28;20233;-76
2021/04/30 04:51:22;;;;;;;10.57;2.73;;;;;;;;;;4856404;28;20177;-76
2021/04/30 04:53:44;;;;;;;21.57;3.97;;;;;;;;;;4855115;28;20186;-76
2021/04/30 04:56:07;;;;;;;30.33;4.70;;;;;;;;;;4855492;28;20586;-75
2021/04/30 04:58:30;;;;;;;12.30;2.60;;;;;;;;;;4855884;28;20182;-77
2021/04/30 05:00:52;;;;;;;35.03;5.40;;;;;;;;;;4853348;28;20210;-76
2021/04/30 05:03:14;;;;;;;12.67;2.73;;;;;;;;;;4855418;28;20182;-77
2021/04/30 05:05:36;;;;;;;25.93;4.13;;;;;;;;;;4856271;28;20190;-77
2021/04/30 05:07:58;;;;;;;11.33;2.50;;;;;;;;;;4854611;28;20194;-77
2021/04/30 05:10:21;;;;;;;14.97;3.00;;;;;;;;;;4856380;28;20240;-76
2021/04/30 05:12:43;;;;;;;45.43;6.73;;;12.00;99.90;;;;;;4831758;28;675013;-76
2021/04/30 05:15:06;;;;;;;18.27;3.47;;;13.10;99.90;;;;;;4855923;28;20300;-77
2021/04/30 05:17:29;;;;;;;24.53;4.00;;;;;;;;;;4848699;28;20789;-78
2021/04/30 05:19:51;;;;;;;8.63;2.07;;;;;;;;;;4855555;28;20878;-78
2021/04/30 05:22:14;;;;;;;9.13;1.97;;;;;;;;;;4856829;28;20198;-77
2021/04/30 05:24:37;;;;;;;20.10;3.00;;;;;;;;;;4856119;28;20252;-77
2021/04/30 05:27:00;;;;;;;9.90;2.10;;;;;;;;;;4856721;28;20241;-77
2021/04/30 05:29:23;;;;;;;17.73;2.87;;;12.40;99.90;;;;;;4854958;28;20236;-78
2021/04/30 05:31:45;;;;;;;24.97;3.80;;;;;;;;;;4855264;28;20237;-77
2021/04/30 05:34:07;;;;;;;11.43;2.00;;;;;;;;;;4855977;28;20549;-77
2021/04/30 05:36:30;;;;;;;9.60;1.80;;;12.50;99.90;;;;;;4855542;28;20614;-78
2021/04/30 05:38:52;;;;;;;10.43;1.97;;;;;;;;;;4855936;28;20730;-76
2021/04/30 05:41:15;;;;;;;8.93;1.73;;;;;;;;;;4854993;28;20201;-79
2021/04/30 05:43:37;;;;;;;17.20;2.60;;;;;;;;;;4855747;28;20186;-76
2021/04/30 05:46:00;;;;;;;14.33;2.47;;;12.70;99.90;;;;;;4855925;28;20608;-79
2021/04/30 05:48:23;;;;;;;11.83;2.07;;;;;;;;;;4856151;28;20254;-78
2021/04/30 05:50:45;;;;;;;29.50;4.10;;;;;;;;;;4854801;28;20248;-76
2021/04/30 05:53:07;;;;;;;9.17;1.77;;;;;;;;;;4854627;28;20182;-79
2021/04/30 05:55:30;;;;;;;12.03;2.10;;;;;;;;;;4856583;28;20186;-78
2021/04/30 05:57:52;;;;;;;4.93;1.37;;;;;;;;;;4856431;28;20185;-79
2021/04/30 06:00:14;;;;;;;15.40;2.43;;;;;;;;;;4855672;28;20213;-77
2021/04/30 06:02:39;;;;;;;42.17;5.67;;;13.20;99.00;;;;;;4852647;28;20214;-77
2021/04/30 06:05:02;;;;;;;8.30;1.50;;;;;;;;;;4855703;28;20635;-77
2021/04/30 06:07:24;;;;;;;12.17;2.00;;;;;;;;;;4856189;28;20194;-78
2021/04/30 06:09:46;;;;;;;16.97;2.50;;;;;;;;;;4856785;28;20228;-77
2021/04/30 06:12:09;;;;;;;17.60;2.67;;;;;;;;;;4853558;28;20589;-76
2021/04/30 06:14:33;;;;;;;10.10;1.70;;;;;;;;;;4852678;28;20252;-75
2021/04/30 06:16:55;;;;;;;14.50;2.30;;;;;;;;;;4847827;28;21034;-78
2021/04/30 06:19:18;;;;;;;10.83;1.73;;;14.00;25.60;;;;;;4856368;28;20240;-81
2021/04/30 06:21:40;;;;;;;26.17;3.43;;;;;;;;;;4855227;28;20213;-77
2021/04/30 06:24:02;;;;;;;9.00;1.57;;;;;;;;;;4854377;28;20651;-77
2021/04/30 06:26:24;;;;;;;9.83;1.50;;;;;;;;;;4855631;28;20344;-78
2021/04/30 06:28:47;;;;;;;22.13;2.97;;;;;;;;;;4855242;28;20189;-79
2021/04/30 06:31:12;;;;;;;12.30;1.87;;;;;;;;;;4856144;28;20182;-79
2021/04/30 06:33:34;;;;;;;29.83;3.80;;;;;;;;;;4854120;28;20248;-77
2021/04/30 06:35:59;;;;;;;8.97;1.53;;;15.20;1.00;;;;;;4855654;28;20190;-75
2021/04/30 06:38:21;;;;;;;13.40;2.03;;;;;;;;;;4855839;28;20737;-75
2021/04/30 06:40:43;;;;;;;21.87;2.93;;;;;;;;;;4850331;28;20210;-79
2021/04/30 06:43:06;;;;;;;8.50;1.47;;;;;;;;;;4852870;28;20186;-79
2021/04/30 06:45:29;;;;;;;14.33;2.00;;;;;;;;;;4847378;28;20265;-77
2021/04/30 06:47:51;;;;;;;8.47;1.40;;;;;;;;;;4855279;28;20958;-76
2021/04/30 06:50:13;;;;;;;17.87;2.50;;;;;;;;;;4854421;28;20236;-75
2021/04/30 06:52:38;;;;;;;55.23;6.43;;;16.00;1.00;;;;;;4853120;28;20252;-76
2021/04/30 06:55:01;;;;;;;10.93;1.63;;;;;;;;;;4855668;28;20224;-78
2021/04/30 06:57:23;;;;;;;13.00;1.80;;;;;;;;;;4836613;28;20199;-77
2021/04/30 06:59:45;;;;;;;24.63;3.07;;;;;;;;;;4855572;28;20190;-80
2021/04/30 07:02:08;;;;;;;11.70;1.63;;;;;;;;;;4853012;28;20283;-81
2021/04/30 07:04:30;;;;;;;11.47;1.60;;;;;;;;;;4852753;28;20182;-77
2021/04/30 07:06:52;;;;;;;15.57;2.07;;;;;;;;;;4853229;28;20190;-76
2021/04/30 07:09:15;;;;;;;10.07;1.40;;;15.80;1.00;;;;;;4854053;28;20256;-79
2021/04/30 07:11:38;;;;;;;22.17;2.73;;;;;;;;;;4855427;28;20206;-79
2021/04/30 07:14:00;;;;;;;22.20;2.83;;;;;;;;;;4854994;28;20244;-77
2021/04/30 07:16:22;;;;;;;12.83;1.73;;;;;;;;;;4855975;28;20247;-78
2021/04/30 07:18:45;;;;;;;20.97;2.70;;;;;;;;;;4857430;28;20205;-78
2021/04/30 07:21:07;;;;;;;11.67;1.60;;;;;;;;;;4859376;28;20211;-77
2021/04/30 07:23:30;;;;;;;14.17;1.93;;;;;;;;;;4858758;28;20217;-78
2021/04/30 07:25:53;;;;;;;10.93;1.47;;;17.20;1.00;;;;;;4858048;28;20252;-79
2021/04/30 07:28:16;;;;;;;23.40;2.90;;;;;;;;;;4857978;28;20194;-78
2021/04/30 07:30:38;;;;;;;21.03;2.63;;;;;;;;;;4859057;28;20193;-77
2021/04/30 07:33:00;;;;;;;15.97;2.10;;;;;;;;;;4858223;28;20186;-76
2021/04/30 07:35:23;;;;;;;20.50;2.50;;;;;;;;;;4857265;28;20189;-79
2021/04/30 07:37:45;;;;;;;26.40;3.37;;;;;;;;;;4857854;28;20647;-79
2021/04/30 07:40:09;;;;;;;20.00;2.57;;;17.40;1.00;;;;;;4856414;28;20598;-78
2021/04/30 07:42:32;;;;;;;31.87;3.83;;;17.50;1.00;;;;;;4857872;28;20238;-76
2021/04/30 07:44:54;;;;;;;14.83;1.97;;;;;;;;;;4857201;28;20194;-78
2021/04/30 07:47:17;;;;;;;15.63;2.17;;;;;;;;;;4857323;28;20240;-78
2021/04/30 07:49:39;;;;;;;36.57;4.37;;;;;;;;;;4855796;28;20202;-79
2021/04/30 07:52:02;;;;;;;15.00;2.00;;;;;;;;;;4858323;28;20239;-78
2021/04/30 07:54:24;;;;;;;18.63;2.40;;;;;;;;;;4857001;28;20194;-79
2021/04/30 07:56:46;;;;;;;34.20;4.10;;;;;;;;;;4857234;28;20252;-83
2021/04/30 07:59:09;;;;;;;13.27;1.73;;;17.20;99.90;;;;;;4858397;28;20236;-76
2021/04/30 08:01:34;;;;;;;19.40;2.43;;;;;;;;;;4853758;28;20234;-84
2021/04/30 08:03:56;;;;;;;11.97;1.63;;;;;;;;;;4857713;28;20232;-83
2021/04/30 08:06:19;;;;;;;26.37;3.37;;;;;;;;;;4856453;28;20281;-80
2021/04/30 08:08:41;;;;;;;25.43;3.33;;;;;;;;;;4857341;28;20599;-81
2021/04/30 08:11:03;;;;;;;27.57;3.37;;;;;;;;;;4856232;28;20622;-76
2021/04/30 08:13:26;;;;;;;27.27;3.33;;;;;;;;;;4855993;28;20272;-80
2021/04/30 08:15:49;;;;;;;35.73;4.47;;;18.00;99.90;;;;;;4839140;28;20582;-79
2021/04/30 08:18:11;;;;;;;14.70;2.00;;;;;;;;;;4853937;28;20239;-81
2021/04/30 08:20:34;;;;;;;17.43;2.33;;;;;;;;;;4856775;28;20213;-77
2021/04/30 08:22:57;;;;;;;12.70;1.83;;;18.30;99.90;;;;;;4856339;28;20194;-78
2021/04/30 08:25:19;;;;;;;18.30;2.53;;;;;;;;;;4857668;28;20190;-76
2021/04/30 08:27:41;;;;;;;29.27;3.80;;;;;;;;;;4856332;28;20203;-78
2021/04/30 08:30:05;;;;;;;16.40;2.07;;;18.40;99.90;;;;;;4857150;28;20599;-79
2021/04/30 08:32:28;;;;;;;14.87;2.03;;;18.50;99.90;;;;;;4849924;28;20198;-78
2021/04/30 08:34:50;;;;;;;19.60;3.80;;;;;;;;;;4856094;28;20186;-80
2021/04/30 08:37:13;;;;;;;18.43;11.77;;;18.70;99.90;;;;;;4856031;28;20672;-77
2021/04/30 08:39:35;;;;;;;66.07;57.33;;;;;;;;;;4855748;28;20241;-78
2021/04/30 08:41:58;;;;;;;50.57;46.37;;;18.60;99.90;;;;;;4857021;28;20206;-76
2021/04/30 08:44:20;;;;;;;50.97;45.97;;;;;;;;;;4855607;28;20338;-75
2021/04/30 08:46:44;;;;;;;120.43;100.10;;;18.40;99.90;;;;;;4857087;28;20236;-76
2021/04/30 08:49:09;;;;;;;113.60;101.17;;;18.60;99.90;;;;;;4855530;28;20232;-79
2021/04/30 08:51:32;;;;;;;116.07;104.23;;;;;;;;;;4856526;28;20237;-78
2021/04/30 08:53:54;;;;;;;93.17;85.10;;;;;;;;;;4856194;28;20737;-75
2021/04/30 08:56:17;;;;;;;107.43;95.97;;;;;;;;;;4855864;28;20190;-77
2021/04/30 08:58:39;;;;;;;225.83;146.03;;;;;;;;;;4856612;28;20583;-78
2021/04/30 09:01:02;;;;;;;32.10;16.13;;;;;;;;;;4853497;28;20266;-77
2021/04/30 09:03:24;;;;;;;18.33;2.40;;;;;;;;;;4854503;28;20259;-77
2021/04/30 09:05:49;;;;;;;36.73;4.40;;;19.20;99.90;;;;;;4855732;28;20604;-83
2021/04/30 09:08:11;;;;;;;17.70;2.40;;;;;;;;;;4856581;28;20224;-78
2021/04/30 09:10:40;;;;;;;32.50;6.63;;;20.30;99.90;;;;;;4856206;28;20252;-78
2021/04/30 09:13:04;;;;;;;13.93;3.30;;;21.10;99.90;;;;;;4856131;28;20301;-80
2021/04/30 09:15:26;;;;;;;25.97;9.00;;;;;;;;;;4856181;28;20724;-79
2021/04/30 09:17:49;;;;;;;240.93;173.63;;;;;;;;;;4855693;28;20196;-78
2021/04/30 09:20:12;;;;;;;127.50;116.47;;;22.80;99.90;;;;;;4856522;28;20200;-80
2021/04/30 09:22:37;;;;;;;85.63;69.00;;;22.90;99.90;;;;;;4855591;28;20213;-79
2021/04/30 09:25:01;;;;;;;21.27;9.40;;;23.30;99.90;;;;;;4856744;28;20182;-78
2021/04/30 09:27:31;;;;;;;41.83;25.40;;;24.30;99.90;;;;;;4855244;28;20249;-80
2021/04/30 09:29:53;;;;;;;37.97;34.17;;;;;;;;;;4856774;28;20186;-78
2021/04/30 09:32:15;;;;;;;137.67;127.60;;;;;;;;;;4855160;28;20764;-81
2021/04/30 09:34:40;;;;;;;376.73;279.77;;;;;;;;;;4855208;28;20185;-81
2021/04/30 09:37:10;;;;;;;329.20;291.10;;;33.40;99.90;;;;;;4856090;28;20187;-83
2021/04/30 09:39:55;;;;;;;295.63;272.13;;;35.10;99.90;;;;;;4846873;28;20198;-80
2021/04/30 09:42:17;;;;;;;180.30;169.15;;;;;;;;;;4856278;28;20260;-81
2021/04/30 09:44:42;;;;;;;210.85;196.70;;;38.50;99.90;;;;;;4853485;28;20216;-80
2021/04/30 09:47:30;;;;;;;218.40;204.90;;;39.80;99.90;;;;;;4856267;28;20256;-88
2021/04/30 09:49:53;;;;;;;17.30;4.57;;;40.40;99.90;;;;;;4837339;28;20267;-81
2021/04/30 09:52:16;;;;;;;18.23;2.53;;;;;;;;;;4855448;28;20193;-82
2021/04/30 09:54:39;;;;;;;31.33;10.75;;;41.90;99.90;;;;;;4853242;28;20283;-80
2021/04/30 09:57:05;;;;;;;53.53;49.10;;;42.90;99.90;;;;;;4846673;28;20747;-80
2021/04/30 09:59:27;;;;;;;346.58;324.15;;;;;;;;;;4854257;28;20328;-80
2021/04/30 10:02:10;;;;;;;472.25;434.83;;;44.20;99.90;;;;;;4853160;28;20796;-78
2021/04/30 10:04:35;;;;;;;191.10;180.48;;;;;;;;;;4838706;28;20190;-83
2021/04/30 10:06:57;;;;;;;371.67;349.80;;;;;;;;;;4855635;28;20216;-76
2021/04/30 10:09:26;;;;;;;528.13;478.23;;;45.30;99.90;;;;;;4855999;28;20260;-79
2021/04/30 10:11:49;;;;;;;482.15;445.77;;;45.10;99.90;;;;;;4854746;28;20206;-77
2021/04/30 10:14:11;;;;;;;485.60;450.13;;;;;;;;;;4853991;28;20339;-77
2021/04/30 10:16:33;;;;;;;414.27;389.98;;;;;;;;;;4854213;28;20232;-79
2021/04/30 10:18:55;;;;;;;367.40;346.48;;;;;;;;;;4855023;28;20225;-79
2021/04/30 10:21:18;;;;;;;324.00;305.90;;;42.70;99.90;;;;;;4855330;28;20213;-76
2021/04/30 10:23:47;;;;;;;330.90;310.80;;;42.30;99.90;;;;;;4854429;28;20721;-78
2021/04/30 10:26:09;;;;;;;174.27;164.52;;;;;;;;;;4857425;28;20212;-76
2021/04/30 10:28:32;;;;;;;118.97;111.22;;;42.80;99.90;;;;;;4855899;28;20189;-76
2021/04/30 10:30:59;;;;;;;82.95;77.60;;;43.30;99.90;;;;;;4855262;28;20197;-77
2021/04/30 10:33:28;;;;;;;183.38;173.25;;;42.50;99.90;;;;;;4853313;28;20194;-75
2021/04/30 10:35:56;;;;;;;184.70;172.65;;;42.30;99.90;;;;;;4854732;28;20186;-80
2021/04/30 10:38:22;;;;;;;149.15;140.93;;;43.00;99.90;;;;;;4855963;28;20209;-77
2021/04/30 10:41:00;;;;;;;122.65;114.00;;;43.90;99.90;;;;;;4848950;28;20206;-78
2021/04/30 10:43:23;;;;;;;103.78;96.70;;;44.40;99.90;;;;;;4853834;28;20189;-78
2021/04/30 10:45:57;;;;;;;114.55;104.68;;;44.10;99.90;;;;;;4853664;28;20206;-79
2021/04/30 10:48:20;;;;;;;256.10;242.73;;;;;;;;;;4855565;28;20747;-79
2021/04/30 10:50:50;;;;;;;303.67;285.80;;;38.80;99.90;;;;;;4856076;28;20190;-76
2021/04/30 10:53:26;;;;;;;218.02;205.60;;;38.40;99.90;;;;;;4857700;28;20194;-82
2021/04/30 10:55:49;;;;;;;171.15;159.85;;;;;;;;;;4857252;28;20185;-77
2021/04/30 10:58:11;;;;;;;218.88;206.85;;;;;;;;;;4859092;28;20194;-75
2021/04/30 11:00:38;;;;;;;278.92;254.90;;;42.30;99.90;;;;;;4857332;28;20190;-76
2021/04/30 11:03:20;;;;;;;362.55;341.35;;;43.70;99.90;;;;;;4853976;28;20247;-76
2021/04/30 11:05:59;;;;;;;412.20;385.55;;;45.00;99.90;;;;;;4857956;28;20189;-80
2021/04/30 11:08:46;;;;;;;433.27;406.70;;;46.10;99.90;;;;;;4857152;28;20619;-77
2021/04/30 11:11:09;;;;;;;437.27;410.55;;;;;;;;;;4859544;28;20267;-81
2021/04/30 11:13:32;;;;;;;324.30;307.15;;;;;;;;;;4857624;28;20908;-80
2021/04/30 11:16:02;;;;;;;287.92;271.45;;;47.20;99.90;;;;;;4857707;28;20190;-80
2021/04/30 11:18:26;;;;;;;302.35;287.20;;;46.80;99.90;;;;;;4859016;28;20193;-81
2021/04/30 11:21:03;;;;;;;308.88;291.70;;;46.60;99.90;;;;;;4859068;28;20182;-76
2021/04/30 11:23:26;;;;;;;172.38;162.63;;;46.10;99.90;;;;;;4859029;28;20181;-80
2021/04/30 11:26:08;;;;;;;189.40;178.60;;;46.20;99.90;;;;;;4858288;28;20193;-77
2021/04/30 11:29:03;;;;;;;179.32;168.13;;;46.50;99.90;;;;;;4850520;28;20304;-82
2021/04/30 11:31:27;;;;;;;209.50;198.07;;;47.00;99.90;;;;;;4848113;28;20311;-79
2021/04/30 11:34:18;;;;;;;184.27;173.82;;;47.70;99.90;;;;;;4857541;28;20190;-80
2021/04/30 11:36:41;;;;;;;338.33;318.80;;;47.70;99.90;;;;;;4853156;28;20693;-80
2021/04/30 11:39:15;;;;;;;242.85;228.80;;;47.60;99.90;;;;;;4857575;28;20182;-79
2021/04/30 11:41:37;;;;;;;430.17;404.42;;;;;;;;;;4856925;28;20308;-84
2021/04/30 11:43:59;;;;;;;419.15;395.10;;;;;;;;;;4856454;28;20186;-78
2021/04/30 11:46:23;;;;;;;369.25;348.73;;;47.70;99.90;;;;;;4858273;28;20651;-79
2021/04/30 11:48:46;;;;;;;286.42;269.50;;;46.50;99.90;;;;;;4857225;28;20264;-79
2021/04/30 11:51:11;;;;;;;271.83;256.15;;;45.90;99.90;;;;;;4857331;28;20185;-77
2021/04/30 11:53:34;;;;;;;210.02;198.93;;;;;;;;;;4857471;28;20182;-80
2021/04/30 11:55:57;;;;;;;131.98;124.90;;;;;;;;;;4858432;28;20244;-78
2021/04/30 11:58:19;;;;;;;118.97;111.65;;;;;;;;;;4858257;28;20237;-82
2021/04/30 12:00:43;;;;;;;194.98;95.57;;;;;;;;;;4849980;28;20226;-81
2021/04/30 12:03:08;;;;;;;12.70;2.05;;;46.40;99.90;;;;;;4856988;28;20202;-79
2021/04/30 12:05:30;;;;;;;13.95;2.17;;;;;;;;;;4856897;28;20186;-77
2021/04/30 12:07:53;;;;;;;23.75;5.32;;;47.90;99.90;;;;;;4856520;28;20194;-79
2021/04/30 12:10:21;;;;;;;25.33;3.70;;;48.40;99.90;;;;;;4855657;28;20689;-82
2021/04/30 12:12:46;;;;;;;44.40;6.20;;;46.60;99.90;;;;;;4855064;28;20252;-82
2021/04/30 12:15:11;;;;;;;17.65;2.80;;;46.20;99.90;;;;;;4857938;28;20174;-81
2021/04/30 12:17:36;;;;;;;13.60;2.13;;;47.00;99.90;;;;;;4856538;28;20647;-83
2021/04/30 12:20:01;;;;;;;9.27;1.85;;;47.90;99.90;;;;;;4857194;28;20190;-81
2021/04/30 12:22:24;;;;;;;14.23;2.25;;;;;;;;;;4853667;28;20222;-79
2021/04/30 12:24:46;;;;;;;26.70;3.80;;;47.30;99.90;;;;;;4856320;28;20190;-84
2021/04/30 12:27:09;;;;;;;13.90;2.15;;;;;;;;;;4858101;28;20194;-81
2021/04/30 12:29:32;;;;;;;17.02;2.55;;;;;;;;;;4858131;28;20240;-81
2021/04/30 12:31:54;;;;;;;10.05;1.70;;;;;;;;;;4857156;28;20192;-78
2021/04/30 12:34:17;;;;;;;7.25;1.25;;;;;;;;;;4856044;28;20921;-78
2021/04/30 12:36:41;;;;;;;19.02;2.65;;;;;;;;;;4856529;28;20186;-80
2021/04/30 12:39:08;;;;;;;7.88;1.30;;;46.50;99.90;;;;;;4857439;28;20220;-83
2021/04/30 12:41:33;;;;;;;7.75;1.35;;;46.60;99.90;;;;;;4857855;28;20201;-80
2021/04/30 12:43:57;;;;;;;6.68;1.10;;;46.10;99.90;;;;;;4855534;28;20182;-86
2021/04/30 12:46:20;;;;;;;10.23;1.63;;;46.30;99.90;;;;;;4856899;28;20814;-80
2021/04/30 12:48:44;;;;;;;19.33;2.78;;;46.00;99.90;;;;;;4855973;28;20301;-79
2021/04/30 12:51:07;;;;;;;8.02;1.38;;;;;;;;;;4857091;28;20193;-82
2021/04/30 12:53:29;;;;;;;18.23;2.72;;;;;;;;;;4854064;28;20423;-87
2021/04/30 12:55:51;;;;;;;17.02;2.47;;;;;;;;;;4857070;28;20597;-78
2021/04/30 12:58:18;;;;;;;6.40;1.17;;;44.20;99.90;;;;;;4856784;28;20193;-81
2021/04/30 13:00:59;;;;;;;110.93;14.48;;;44.60;99.90;;;;;;4854317;28;20307;-76
2021/04/30 13:03:21;;;;;;;8.00;1.38;;;;;;;;;;4856819;28;20636;-84
2021/04/30 13:05:44;;;;;;;20.10;2.85;;;;;;;;;;4855854;28;20251;-77
2021/04/30 13:08:06;;;;;;;5.47;1.02;;;;;;;;;;4855159;28;20197;-78
2021/04/30 13:10:31;;;;;;;9.35;1.55;;;;;;;;;;4855973;28;20193;-83
2021/04/30 13:13:02;;;;;;;13.98;2.25;;;41.50;99.90;;;;;;4855263;28;20252;-82
2021/04/30 13:15:26;;;;;;;5.97;1.05;;;41.00;99.90;;;;;;4852109;28;20648;-79
2021/04/30 13:17:56;;;;;;;15.80;2.25;;;41.10;99.90;;;;;;4855417;28;20256;-80
2021/04/30 13:20:20;;;;;;;9.15;1.45;;;41.80;99.90;;;;;;4857515;28;20181;-87
2021/04/30 13:22:43;;;;;;;41.92;5.68;;;;;;;;;;4854350;28;20222;-83
2021/04/30 13:25:05;;;;;;;13.45;2.10;;;;;;;;;;4854615;28;20303;-84